Time;durP1;ratioP1;P1;durP2;ratioP2;P2;SDS_P1;SDS_P2;PMS_P1;PMS_P2;Temp;Humidity;BMP_temperature;BMP_pressure;BME280_temperature;BME280_humidity;BME280_pressure;Samples;Min_cycle;Max_cycle;Signal;HPM_P1;HPM_P2
2022/01/18 00:01:23;;;;;;;11.40;3.00;;;6.30;99.90;;;;;;5113989;28;20199;-55
2022/01/18 00:03:52;;;;;;;9.33;3.50;;;6.30;99.90;;;;;;5113561;28;20209;-56
2022/01/18 00:06:20;;;;;;;9.53;3.10;;;6.30;99.90;;;;;;5113780;28;20204;-57
2022/01/18 00:08:49;;;;;;;12.73;2.87;;;6.30;99.90;;;;;;5113176;28;20214;-56
2022/01/18 00:11:18;;;;;;;10.13;3.07;;;6.30;99.90;;;;;;5112985;28;20222;-55
2022/01/18 00:13:49;;;;;;;8.87;3.00;;;6.20;99.90;;;;;;5124310;27;20210;-56
2022/01/18 00:16:28;;;;;;;11.37;3.20;;;6.20;99.90;;;;;;5134107;27;20199;-56
2022/01/18 00:19:01;;;;;;;8.27;2.90;;;6.20;99.90;;;;;;5133815;27;20194;-55
2022/01/18 00:21:37;;;;;;;9.30;3.10;;;6.20;99.90;;;;;;5133950;27;20620;-56
2022/01/18 00:24:07;;;;;;;11.20;2.43;;;6.20;99.90;;;;;;5133542;27;20220;-55
2022/01/18 00:26:35;;;;;;;8.80;2.80;;;6.10;99.90;;;;;;5133661;27;20188;-56
2022/01/18 00:29:09;;;;;;;9.97;2.97;;;6.20;99.90;;;;;;5125855;27;20262;-56
2022/01/18 00:31:56;;;;;;;7.60;2.80;;;6.20;99.90;;;;;;5113154;28;20209;-55
2022/01/18 00:34:25;;;;;;;9.20;2.70;;;6.10;99.90;;;;;;5112677;28;20711;-57
2022/01/18 00:36:59;;;;;;;13.10;3.30;;;6.20;99.90;;;;;;5112004;28;20209;-56
2022/01/18 00:39:28;;;;;;;10.03;2.60;;;6.20;99.90;;;;;;5112449;28;20221;-56
2022/01/18 00:41:56;;;;;;;11.47;2.70;;;6.20;99.90;;;;;;5123944;27;20206;-55
2022/01/18 00:44:24;;;;;;;7.77;2.83;;;6.20;99.90;;;;;;5128730;27;20246;-56
2022/01/18 00:46:53;;;;;;;11.37;2.73;;;6.20;99.90;;;;;;5115027;27;20582;-56
2022/01/18 00:49:21;;;;;;;9.93;2.50;;;6.10;99.90;;;;;;5111478;28;20224;-57
2022/01/18 00:51:54;;;;;;;10.20;2.37;;;6.10;99.90;;;;;;5112453;28;20263;-55
2022/01/18 00:54:28;;;;;;;8.93;2.70;;;6.10;99.90;;;;;;5112420;28;20203;-55
2022/01/18 00:56:57;;;;;;;10.27;2.30;;;6.00;99.90;;;;;;5124426;27;20203;-56
2022/01/18 00:59:25;;;;;;;10.53;2.77;;;6.00;99.90;;;;;;5103927;28;20288;-55
2022/01/18 01:01:55;;;;;;;11.50;2.77;;;6.00;99.90;;;;;;5091688;28;20200;-56
2022/01/18 01:04:27;;;;;;;7.83;2.47;;;6.00;99.90;;;;;;5092163;28;20313;-56
2022/01/18 01:06:55;;;;;;;7.37;2.23;;;6.10;99.90;;;;;;5092176;28;20274;-57
2022/01/18 01:09:23;;;;;;;8.03;2.57;;;6.10;99.90;;;;;;5100726;27;20231;-55
2022/01/18 01:11:52;;;;;;;7.03;2.13;;;6.00;99.90;;;;;;5111895;28;20790;-56
2022/01/18 01:14:24;;;;;;;10.83;2.73;;;6.00;99.90;;;;;;5112397;28;20250;-56
2022/01/18 01:17:05;;;;;;;11.13;2.23;;;6.00;99.90;;;;;;5112194;28;20204;-57
2022/01/18 01:34:02;;;;;;;10.50;2.27;;;6.10;99.90;;;;;;5132239;27;20205;-53
2022/01/18 01:36:42;;;;;;;6.77;2.00;;;6.00;99.90;;;;;;5115430;27;20210;-57
2022/01/18 01:42:16;;;;;;;8.23;2.40;;;6.00;99.90;;;;;;5124632;27;20234;-55
2022/01/18 01:44:45;;;;;;;10.67;2.17;;;6.00;99.90;;;;;;5116943;27;20268;-54
2022/01/18 01:47:19;;;;;;;5.33;2.00;;;5.90;99.90;;;;;;5111663;28;20282;-53
2022/01/18 01:49:51;;;;;;;8.80;2.43;;;5.90;99.90;;;;;;5111037;28;20235;-55
2022/01/18 01:52:22;;;;;;;5.33;2.00;;;5.90;99.90;;;;;;5111045;28;20247;-53
2022/01/18 01:54:50;;;;;;;7.73;2.20;;;5.80;99.90;;;;;;5111080;28;20204;-54
2022/01/18 01:57:18;;;;;;;7.23;2.30;;;5.70;99.90;;;;;;5111433;28;20204;-56
2022/01/18 01:59:47;;;;;;;9.57;1.93;;;5.60;99.90;;;;;;5110401;28;20231;-57
2022/01/18 02:02:15;;;;;;;7.63;2.23;;;5.60;99.90;;;;;;5111331;28;20824;-56
2022/01/18 02:04:43;;;;;;;6.17;2.00;;;5.50;99.90;;;;;;5111277;28;20214;-56
2022/01/18 02:07:14;;;;;;;6.13;2.17;;;5.50;99.90;;;;;;5130232;27;20242;-56
2022/01/18 02:09:47;;;;;;;5.90;1.97;;;5.50;99.90;;;;;;5126240;27;20233;-54
2022/01/18 02:12:18;;;;;;;6.07;2.17;;;5.50;99.90;;;;;;5111209;28;20220;-54
2022/01/18 02:14:52;;;;;;;5.57;1.80;;;5.60;99.90;;;;;;5111429;28;20204;-54
2022/01/18 02:22:55;;;;;;;4.43;1.70;;;5.80;99.90;;;;;;5111322;28;20297;-57
2022/01/18 02:25:25;;;;;;;6.03;1.80;;;5.80;99.90;;;;;;5111501;28;20231;-55
2022/01/18 02:27:53;;;;;;;5.50;1.80;;;5.80;99.90;;;;;;5111256;28;20630;-56
2022/01/18 02:30:21;;;;;;;4.30;1.30;;;5.80;99.90;;;;;;5110115;28;20225;-56
2022/01/18 02:32:49;;;;;;;6.50;1.90;;;5.80;99.90;;;;;;5110368;28;20700;-54
2022/01/18 02:35:18;;;;;;;7.37;2.10;;;5.90;99.90;;;;;;5129533;28;20229;-56
2022/01/18 02:37:52;;;;;;;4.43;1.53;;;5.90;99.90;;;;;;5126695;27;20617;-57
2022/01/18 02:40:20;;;;;;;3.30;1.60;;;5.90;99.90;;;;;;5111208;28;20270;-55
2022/01/18 02:42:57;;;;;;;5.70;1.67;;;5.90;99.90;;;;;;5113420;28;20211;-56
2022/01/18 02:45:25;;;;;;;6.77;1.70;;;5.90;99.90;;;;;;5131471;28;20184;-56
2022/01/18 02:47:54;;;;;;;5.00;1.80;;;5.80;99.90;;;;;;5131584;28;20207;-56
2022/01/18 02:50:24;;;;;;;4.67;1.83;;;5.90;99.90;;;;;;5115100;27;20306;-56
2022/01/18 02:52:52;;;;;;;8.60;1.60;;;5.80;99.90;;;;;;5110542;28;20260;-55
2022/01/18 02:55:20;;;;;;;9.23;2.37;;;5.80;99.90;;;;;;5111463;28;20211;-54
2022/01/18 02:57:56;;;;;;;5.77;1.90;;;5.90;99.90;;;;;;5110918;28;20224;-55
2022/01/18 03:00:30;;;;;;;3.90;1.73;;;5.90;99.90;;;;;;5112395;28;20282;-56
2022/01/18 03:03:13;;;;;;;3.47;1.90;;;5.90;99.90;;;;;;5129424;27;20668;-56
2022/01/18 03:05:45;;;;;;;6.20;2.23;;;5.90;99.90;;;;;;5135268;27;20194;-55
2022/01/18 03:08:15;;;;;;;7.57;2.20;;;5.90;99.90;;;;;;5135491;27;20214;-56
2022/01/18 03:10:44;;;;;;;7.00;2.33;;;5.90;99.90;;;;;;5121592;27;20217;-55
2022/01/18 03:13:12;;;;;;;7.77;2.10;;;5.80;99.90;;;;;;5114659;28;20258;-55
2022/01/18 03:15:40;;;;;;;7.33;1.97;;;5.70;99.90;;;;;;5117153;27;20271;-57
2022/01/18 03:18:08;;;;;;;6.30;2.30;;;5.60;99.90;;;;;;5135234;27;20208;-57
2022/01/18 03:20:37;;;;;;;6.33;2.20;;;5.70;99.90;;;;;;5134280;27;20232;-56
2022/01/18 03:23:13;;;;;;;6.17;2.00;;;5.70;99.90;;;;;;5135058;27;20219;-57
2022/01/18 03:25:53;;;;;;;6.07;2.63;;;5.70;99.90;;;;;;5134862;27;20241;-56
2022/01/18 03:28:21;;;;;;;5.87;1.90;;;5.70;99.90;;;;;;5122973;27;20231;-56
2022/01/18 03:30:53;;;;;;;5.13;1.90;;;5.70;99.90;;;;;;5122499;27;20774;-56
2022/01/18 03:33:23;;;;;;;7.40;2.30;;;5.70;99.90;;;;;;5135060;27;20219;-57
2022/01/18 03:35:53;;;;;;;7.47;2.30;;;5.70;99.90;;;;;;5114765;27;20210;-55
2022/01/18 03:38:29;;;;;;;9.20;2.20;;;5.70;99.90;;;;;;5114273;28;20210;-56
2022/01/18 03:40:58;;;;;;;5.03;1.80;;;5.70;99.90;;;;;;5113724;28;20647;-55
2022/01/18 03:43:26;;;;;;;6.13;2.30;;;5.70;99.90;;;;;;5121285;27;20675;-55
2022/01/18 03:46:00;;;;;;;6.93;2.30;;;5.80;99.90;;;;;;5103143;28;20205;-56
2022/01/18 03:48:32;;;;;;;6.67;2.40;;;5.80;99.90;;;;;;5113835;28;20205;-56
2022/01/18 03:51:01;;;;;;;7.57;2.37;;;5.80;99.90;;;;;;5113617;28;20229;-55
2022/01/18 03:53:30;;;;;;;7.83;2.30;;;5.70;99.90;;;;;;5113635;28;20219;-56
2022/01/18 03:55:59;;;;;;;6.23;2.30;;;5.70;99.90;;;;;;5113811;28;20204;-55
2022/01/18 03:58:27;;;;;;;5.97;2.13;;;5.70;99.90;;;;;;5109336;27;20208;-55
2022/01/18 04:00:55;;;;;;;6.10;2.00;;;5.70;99.90;;;;;;5113276;28;20279;-55
2022/01/18 04:03:23;;;;;;;7.50;1.87;;;5.80;99.90;;;;;;5113671;28;20227;-55
2022/01/18 04:05:53;;;;;;;4.90;2.30;;;5.80;99.90;;;;;;5113779;28;20201;-56
2022/01/18 04:08:21;;;;;;;5.97;2.30;;;5.70;99.90;;;;;;5113361;28;20779;-56
2022/01/18 04:10:51;;;;;;;6.27;2.20;;;5.70;99.90;;;;;;5112908;28;20224;-55
2022/01/18 04:13:19;;;;;;;8.10;1.97;;;5.70;99.90;;;;;;5113081;28;20597;-55
2022/01/18 04:15:47;;;;;;;3.23;1.90;;;5.70;99.90;;;;;;5113232;28;20696;-57
2022/01/18 04:18:24;;;;;;;5.53;1.87;;;5.70;99.90;;;;;;5120236;27;20245;-55
2022/01/18 04:29:11;;;;;;;5.90;2.07;;;5.80;99.90;;;;;;5092369;28;20625;-55
2022/01/18 04:31:40;;;;;;;5.70;2.30;;;5.80;99.90;;;;;;5100311;28;20660;-56
2022/01/18 04:34:08;;;;;;;5.53;2.27;;;5.80;99.90;;;;;;5113106;28;20268;-56
2022/01/18 04:36:37;;;;;;;7.60;2.37;;;5.80;99.90;;;;;;5113123;28;20211;-56
2022/01/18 04:39:06;;;;;;;5.37;1.97;;;5.90;99.90;;;;;;5112679;28;20240;-55
2022/01/18 04:41:35;;;;;;;9.53;2.50;;;5.90;99.90;;;;;;5112893;28;20212;-56
2022/01/18 04:48:23;;;;;;;4.30;2.03;;;5.90;99.90;;;;;;5108450;28;20196;-55
2022/01/18 04:49:54;;;;;;;4.70;2.30;;;5.80;99.90;;;;;;5058847;28;20277;-56
2022/01/18 04:52:22;;;;;;;5.70;1.90;;;5.80;99.90;;;;;;5096238;27;20535;-55
2022/01/18 04:54:58;;;;;;;3.40;1.90;;;5.80;99.90;;;;;;5135015;27;20208;-55
2022/01/18 05:00:15;;;;;;;8.07;2.10;;;5.80;99.90;;;;;;5092354;28;20751;-56
2022/01/18 05:02:43;;;;;;;7.10;2.33;;;5.80;99.90;;;;;;5092303;28;20201;-57
2022/01/18 05:05:18;;;;;;;7.30;2.33;;;5.80;99.90;;;;;;5091970;28;20201;-55
2022/01/18 05:07:47;;;;;;;6.57;2.73;;;5.80;99.90;;;;;;5092162;28;20218;-56
2022/01/18 05:10:19;;;;;;;8.40;3.13;;;5.80;99.90;;;;;;5110417;27;20219;-56
2022/01/18 05:12:51;;;;;;;7.63;2.57;;;5.80;99.90;;;;;;5132970;27;20208;-56
2022/01/18 05:15:39;;;;;;;4.03;2.23;;;5.80;99.90;;;;;;5114027;27;20256;-54
2022/01/18 05:21:09;;;;;;;6.40;3.17;;;5.80;99.90;;;;;;5109661;28;20244;-54
2022/01/18 05:23:36;;;;;;;7.47;3.00;;;5.80;99.90;;;;;;5129497;27;20627;-56
2022/01/18 05:26:05;;;;;;;7.63;3.00;;;5.80;99.90;;;;;;5131545;27;20639;-56
2022/01/18 05:28:34;;;;;;;8.07;2.90;;;5.80;99.90;;;;;;5112253;28;20276;-55
2022/01/18 05:31:02;;;;;;;7.13;2.67;;;5.90;99.90;;;;;;5111751;28;20233;-56
2022/01/18 05:33:30;;;;;;;5.67;2.53;;;5.80;99.90;;;;;;5112042;28;20227;-56
2022/01/18 05:35:59;;;;;;;7.20;2.33;;;5.80;99.90;;;;;;5111618;28;20214;-56
2022/01/18 05:38:27;;;;;;;9.63;2.50;;;5.80;99.90;;;;;;5111813;28;20214;-56
2022/01/18 05:40:56;;;;;;;5.37;2.40;;;5.80;99.90;;;;;;5111578;28;20758;-55
2022/01/18 05:43:24;;;;;;;6.83;2.43;;;5.80;99.90;;;;;;5105876;28;20191;-55
2022/01/18 05:45:53;;;;;;;5.13;2.80;;;5.80;99.90;;;;;;5111741;28;20692;-55
2022/01/18 05:48:21;;;;;;;5.13;2.60;;;5.80;99.90;;;;;;5111625;28;20239;-55
2022/01/18 05:50:49;;;;;;;6.57;3.13;;;5.80;99.90;;;;;;5110642;28;20255;-55
2022/01/18 05:53:17;;;;;;;9.30;2.50;;;5.90;99.90;;;;;;5118665;27;20269;-56
2022/01/18 05:55:45;;;;;;;5.17;2.90;;;5.80;99.90;;;;;;5111524;28;20207;-55
2022/01/18 05:58:14;;;;;;;7.30;3.00;;;5.80;99.90;;;;;;5117462;27;20203;-57
2022/01/18 06:00:43;;;;;;;7.53;3.00;;;5.80;99.90;;;;;;5113261;27;20224;-55
2022/01/18 06:03:14;;;;;;;6.93;2.80;;;5.90;99.90;;;;;;5111459;28;20266;-56
2022/01/18 06:08:29;;;;;;;3.20;2.70;;;5.90;99.90;;;;;;5111218;28;20231;-56
2022/01/18 06:10:57;;;;;;;8.70;3.37;;;5.80;99.90;;;;;;5126246;28;20269;-55
2022/01/18 06:13:28;;;;;;;8.10;3.60;;;5.80;99.90;;;;;;5131734;28;20228;-55
2022/01/18 06:15:56;;;;;;;5.60;3.50;;;5.80;99.90;;;;;;5130614;28;20206;-56
2022/01/18 06:18:27;;;;;;;6.70;3.07;;;5.80;99.90;;;;;;5110323;28;20241;-56
2022/01/18 06:20:55;;;;;;;7.70;2.87;;;5.80;99.90;;;;;;5131385;28;20224;-57
2022/01/18 06:23:25;;;;;;;8.43;3.40;;;5.80;99.90;;;;;;5121806;28;20590;-53
2022/01/18 06:25:54;;;;;;;5.07;2.50;;;5.80;99.90;;;;;;5111134;28;20257;-57
2022/01/18 06:28:22;;;;;;;10.00;3.20;;;5.80;99.90;;;;;;5107176;28;20207;-56
2022/01/18 06:30:50;;;;;;;7.73;2.87;;;5.80;99.90;;;;;;5092355;28;20228;-56
2022/01/18 06:33:18;;;;;;;8.67;2.87;;;5.80;99.90;;;;;;5129941;28;20592;-56
2022/01/18 06:35:48;;;;;;;5.27;2.63;;;5.80;99.90;;;;;;5105523;27;20209;-55
2022/01/18 06:38:16;;;;;;;7.47;3.23;;;5.70;99.90;;;;;;5094785;28;20232;-56
2022/01/18 06:40:45;;;;;;;5.03;2.40;;;5.70;99.90;;;;;;5094735;28;20271;-56
2022/01/18 06:43:13;;;;;;;5.77;2.57;;;5.70;99.90;;;;;;5089327;28;20203;-56
2022/01/18 06:45:43;;;;;;;7.03;2.30;;;5.70;99.90;;;;;;5100899;28;20756;-55
2022/01/18 06:48:11;;;;;;;5.27;2.40;;;5.70;99.90;;;;;;5111213;28;20244;-55
2022/01/18 06:50:39;;;;;;;6.77;2.67;;;5.70;99.90;;;;;;5114373;28;20260;-55
2022/01/18 06:53:08;;;;;;;7.00;3.27;;;5.70;99.90;;;;;;5133028;27;20734;-55
2022/01/18 06:55:36;;;;;;;8.67;3.30;;;5.80;99.90;;;;;;5134707;27;20248;-56
2022/01/18 06:58:05;;;;;;;8.50;3.23;;;5.70;99.90;;;;;;5115389;27;20216;-56
2022/01/18 07:00:33;;;;;;;5.13;3.23;;;5.70;99.90;;;;;;5091544;28;20370;-57
2022/01/18 07:03:01;;;;;;;10.77;3.57;;;5.70;99.90;;;;;;5094402;28;20208;-56
2022/01/18 07:05:32;;;;;;;7.33;3.10;;;5.60;99.90;;;;;;5094167;28;20296;-56
2022/01/18 07:08:00;;;;;;;9.77;3.37;;;5.50;99.90;;;;;;5094235;28;20194;-56
2022/01/18 07:10:31;;;;;;;6.97;3.57;;;5.60;99.90;;;;;;5122238;27;20225;-57
2022/01/18 07:13:00;;;;;;;7.57;3.00;;;5.60;99.90;;;;;;5117298;27;20264;-56
2022/01/18 07:15:29;;;;;;;9.77;3.07;;;5.60;99.90;;;;;;5100859;28;20228;-56
2022/01/18 07:17:57;;;;;;;8.43;3.40;;;5.60;99.90;;;;;;5098553;28;20203;-55
2022/01/18 07:20:26;;;;;;;8.17;3.30;;;5.60;99.90;;;;;;5114286;28;20275;-56
2022/01/18 07:22:54;;;;;;;9.63;3.37;;;5.60;99.90;;;;;;5113444;28;20220;-56
2022/01/18 07:25:25;;;;;;;11.20;3.57;;;5.70;99.90;;;;;;5114338;28;20213;-56
2022/01/18 07:27:54;;;;;;;10.37;3.50;;;5.70;99.90;;;;;;5114571;28;20185;-57
2022/01/18 07:30:22;;;;;;;10.47;4.13;;;5.70;99.90;;;;;;5114103;28;20255;-56
2022/01/18 07:32:51;;;;;;;6.50;3.37;;;5.70;99.90;;;;;;5113931;28;20201;-56
2022/01/18 07:35:19;;;;;;;11.60;4.67;;;5.70;99.90;;;;;;5113941;28;20271;-57
2022/01/18 07:37:47;;;;;;;9.77;4.30;;;5.70;99.90;;;;;;5113843;28;20581;-54
2022/01/18 07:40:15;;;;;;;8.10;3.83;;;5.70;99.90;;;;;;5130970;27;20588;-56
2022/01/18 07:42:43;;;;;;;10.70;4.33;;;5.70;99.90;;;;;;5126920;27;20554;-56
2022/01/18 07:45:13;;;;;;;10.67;4.70;;;5.70;99.90;;;;;;5118220;27;20614;-56
2022/01/18 07:47:41;;;;;;;9.50;5.53;;;5.80;99.90;;;;;;5134494;27;20212;-55
2022/01/18 07:50:10;;;;;;;9.33;5.67;;;5.80;99.90;;;;;;5119255;27;20281;-55
2022/01/18 07:52:38;;;;;;;9.77;5.63;;;5.80;99.90;;;;;;5118067;27;20675;-57
2022/01/18 07:55:07;;;;;;;8.93;4.37;;;5.80;99.90;;;;;;5133936;27;20695;-56
2022/01/18 07:57:37;;;;;;;7.73;4.37;;;5.80;99.90;;;;;;5134590;27;20206;-56
2022/01/18 08:00:06;;;;;;;7.47;4.43;;;5.80;99.90;;;;;;5120333;27;20225;-57
2022/01/18 08:02:37;;;;;;;8.17;5.00;;;5.80;99.90;;;;;;5113640;28;20211;-58
2022/01/18 08:05:06;;;;;;;9.43;6.13;;;5.80;99.90;;;;;;5113790;28;20188;-57
2022/01/18 08:07:35;;;;;;;7.80;5.20;;;5.90;99.90;;;;;;5113755;28;20208;-56
2022/01/18 08:10:06;;;;;;;7.83;5.27;;;5.90;99.90;;;;;;5120342;27;20573;-56
2022/01/18 08:12:34;;;;;;;6.77;4.60;;;5.80;99.90;;;;;;5108614;28;20367;-57
2022/01/18 08:15:13;;;;;;;8.80;4.93;;;5.80;99.90;;;;;;5113041;28;20229;-56
2022/01/18 08:17:54;;;;;;;9.23;5.50;;;5.90;99.90;;;;;;5113710;28;20595;-54
2022/01/18 08:20:22;;;;;;;7.30;5.20;;;5.90;99.90;;;;;;5113153;28;20221;-56
2022/01/18 08:22:50;;;;;;;6.77;4.50;;;5.90;99.90;;;;;;5113322;28;20216;-56
2022/01/18 08:25:18;;;;;;;9.47;5.63;;;5.90;99.90;;;;;;5113397;28;20550;-57
2022/01/18 08:27:47;;;;;;;10.07;5.10;;;5.90;99.90;;;;;;5112950;28;20256;-55
2022/01/18 08:30:17;;;;;;;9.57;5.07;;;5.90;99.90;;;;;;5111861;28;20604;-57
2022/01/18 08:32:45;;;;;;;12.00;4.47;;;6.00;99.90;;;;;;5126193;27;20208;-55
2022/01/18 08:35:15;;;;;;;7.80;4.10;;;6.00;99.90;;;;;;5133622;27;20220;-56
2022/01/18 08:37:43;;;;;;;11.57;4.30;;;6.00;99.90;;;;;;5133596;27;20236;-54
2022/01/18 08:40:12;;;;;;;6.93;4.80;;;6.10;99.90;;;;;;5109892;27;20225;-56
2022/01/18 08:42:40;;;;;;;9.20;3.87;;;6.10;99.90;;;;;;5093951;28;20765;-56
2022/01/18 08:45:09;;;;;;;8.70;5.40;;;6.10;99.90;;;;;;5117808;27;20204;-56
2022/01/18 08:47:37;;;;;;;6.57;4.40;;;6.00;99.90;;;;;;5112746;28;20240;-55
2022/01/18 08:50:06;;;;;;;12.13;4.90;;;6.10;99.90;;;;;;5111274;28;20247;-55
2022/01/18 08:52:36;;;;;;;7.27;3.30;;;6.10;99.90;;;;;;5119427;27;20197;-56
2022/01/18 08:55:04;;;;;;;5.20;3.50;;;6.20;99.90;;;;;;5111160;28;20235;-56
2022/01/18 08:57:32;;;;;;;9.27;4.40;;;6.20;99.90;;;;;;5111985;28;20211;-55
2022/01/18 09:00:00;;;;;;;7.27;4.60;;;6.30;99.90;;;;;;5104558;27;20228;-55
2022/01/18 09:02:29;;;;;;;5.27;4.20;;;6.20;99.90;;;;;;5091982;28;20208;-57
2022/01/18 09:04:57;;;;;;;8.50;4.97;;;6.20;99.90;;;;;;5094999;28;20201;-56
2022/01/18 09:07:25;;;;;;;14.33;6.40;;;6.30;99.90;;;;;;5109115;27;20210;-56
2022/01/18 09:10:03;;;;;;;9.13;5.03;;;6.20;99.90;;;;;;5117892;27;20221;-56
2022/01/18 09:12:31;;;;;;;14.23;9.10;;;6.20;99.90;;;;;;5119733;27;20568;-56
2022/01/18 09:15:00;;;;;;;8.83;5.30;;;6.30;99.90;;;;;;5112008;28;20251;-56
2022/01/18 09:17:29;;;;;;;9.23;6.50;;;6.40;99.90;;;;;;5111717;28;20621;-54
2022/01/18 09:19:58;;;;;;;6.97;4.23;;;6.40;99.90;;;;;;5111629;28;20956;-55
2022/01/18 09:22:26;;;;;;;14.73;10.17;;;6.40;99.90;;;;;;5111524;28;20225;-56
2022/01/18 09:24:56;;;;;;;14.13;9.90;;;6.40;99.90;;;;;;5112016;28;20954;-56
2022/01/18 09:27:24;;;;;;;9.13;5.07;;;6.40;99.90;;;;;;5114319;27;20632;-55
2022/01/18 09:29:52;;;;;;;5.97;3.77;;;6.40;99.90;;;;;;5116980;27;20253;-56
2022/01/18 09:32:21;;;;;;;8.77;3.80;;;6.50;99.90;;;;;;5111415;28;20201;-55
2022/01/18 09:34:49;;;;;;;6.87;3.50;;;6.60;99.90;;;;;;5115768;27;20736;-55
2022/01/18 09:37:17;;;;;;;7.87;4.20;;;6.60;99.90;;;;;;5131690;27;20203;-55
2022/01/18 09:39:45;;;;;;;8.10;6.60;;;6.70;99.90;;;;;;5132225;27;20224;-55
2022/01/18 09:42:18;;;;;;;6.10;3.93;;;6.70;99.90;;;;;;5111998;28;20710;-56
2022/01/18 09:44:47;;;;;;;6.37;4.10;;;6.70;99.90;;;;;;5111643;28;20584;-56
2022/01/18 09:47:16;;;;;;;8.23;3.77;;;6.60;99.90;;;;;;5110982;28;20255;-55
2022/01/18 09:49:44;;;;;;;7.47;3.70;;;6.70;99.90;;;;;;5111129;28;20223;-56
2022/01/18 09:52:12;;;;;;;7.60;3.70;;;6.70;99.90;;;;;;5110810;28;20260;-56
2022/01/18 09:54:40;;;;;;;7.50;3.77;;;6.70;99.90;;;;;;5113774;27;20246;-55
2022/01/18 09:57:08;;;;;;;6.53;3.30;;;6.60;99.90;;;;;;5111793;28;20251;-57
2022/01/18 09:59:38;;;;;;;7.60;3.47;;;6.60;99.90;;;;;;5111334;28;20223;-56
2022/01/18 10:02:09;;;;;;;9.63;4.13;;;6.70;99.90;;;;;;5111359;28;20230;-55
2022/01/18 10:04:41;;;;;;;7.20;3.60;;;6.80;99.90;;;;;;5107230;28;20668;-56
2022/01/18 10:07:10;;;;;;;7.27;3.83;;;6.90;99.90;;;;;;5111408;28;20248;-56
2022/01/18 10:09:39;;;;;;;4.37;3.97;;;6.90;99.90;;;;;;5113846;28;20261;-55
2022/01/18 10:12:11;;;;;;;9.53;3.80;;;6.90;99.90;;;;;;5131804;27;20252;-56
2022/01/18 10:14:43;;;;;;;7.37;3.77;;;6.90;99.90;;;;;;5131685;28;20571;-56
2022/01/18 10:17:12;;;;;;;13.00;7.43;;;6.90;99.90;;;;;;5132226;28;20230;-55
2022/01/18 10:19:48;;;;;;;7.47;5.07;;;6.90;99.90;;;;;;5112617;28;20296;-57
2022/01/18 10:22:18;;;;;;;8.37;5.03;;;6.90;99.90;;;;;;5111052;28;20207;-56
2022/01/18 10:24:47;;;;;;;8.17;4.90;;;6.90;99.90;;;;;;5111462;28;20195;-54
2022/01/18 10:27:15;;;;;;;10.67;4.10;;;6.90;99.90;;;;;;5111362;28;20245;-55
2022/01/18 10:29:47;;;;;;;5.67;3.67;;;6.90;99.90;;;;;;5111145;28;20230;-55
2022/01/18 10:32:22;;;;;;;7.17;4.60;;;7.00;99.90;;;;;;5111561;28;20264;-56
2022/01/18 10:35:08;;;;;;;5.83;4.87;;;6.90;99.90;;;;;;5111215;28;20242;-56
2022/01/18 10:37:41;;;;;;;6.60;3.70;;;7.00;99.90;;;;;;5110997;28;20211;-56
2022/01/18 10:40:15;;;;;;;10.73;5.43;;;7.00;99.90;;;;;;5113460;28;20223;-56
2022/01/18 10:42:47;;;;;;;14.73;7.63;;;7.00;99.90;;;;;;5129936;28;20240;-57
2022/01/18 10:45:28;;;;;;;13.40;8.00;;;7.10;99.90;;;;;;5093269;28;20676;-55
2022/01/18 10:47:59;;;;;;;7.63;4.93;;;7.10;99.90;;;;;;5094573;28;20214;-56
2022/01/18 10:50:32;;;;;;;5.47;4.47;;;7.20;99.90;;;;;;5110448;28;20711;-56
2022/01/18 10:53:13;;;;;;;8.73;5.40;;;7.30;99.90;;;;;;5108072;28;20576;-56
2022/01/18 10:55:41;;;;;;;5.17;4.03;;;7.30;99.90;;;;;;5131463;28;20270;-56
2022/01/18 10:58:14;;;;;;;8.33;4.80;;;7.30;99.90;;;;;;5121941;28;20203;-58
2022/01/18 11:00:43;;;;;;;5.53;4.33;;;7.30;99.90;;;;;;5094759;28;20888;-56
2022/01/18 11:03:12;;;;;;;6.07;4.17;;;7.30;99.90;;;;;;5090930;28;20207;-55
2022/01/18 11:05:43;;;;;;;6.47;4.10;;;7.30;99.90;;;;;;5100760;28;20207;-56
2022/01/18 11:08:12;;;;;;;6.23;4.90;;;7.30;99.90;;;;;;5110255;28;20204;-55
2022/01/18 11:10:42;;;;;;;6.03;4.83;;;7.40;99.90;;;;;;5114719;28;20714;-56
2022/01/18 11:13:34;;;;;;;7.07;4.80;;;7.40;99.90;;;;;;5132068;28;20210;-57
2022/01/18 11:16:13;;;;;;;9.50;5.70;;;7.50;99.90;;;;;;5111766;28;20231;-62
2022/01/18 11:18:45;;;;;;;6.30;5.10;;;7.60;99.90;;;;;;5101965;28;20238;-55
2022/01/18 11:21:16;;;;;;;7.97;4.97;;;7.70;99.90;;;;;;5112108;28;20227;-56
2022/01/18 11:23:46;;;;;;;5.50;4.87;;;7.60;99.90;;;;;;5114211;28;20210;-55
2022/01/18 11:26:17;;;;;;;8.03;5.40;;;7.60;99.90;;;;;;5114546;28;20576;-55
2022/01/18 11:28:47;;;;;;;5.20;4.67;;;7.60;99.90;;;;;;5114191;28;20258;-56
2022/01/18 11:31:16;;;;;;;6.60;4.60;;;7.60;99.90;;;;;;5113976;28;20570;-56
2022/01/18 11:33:59;;;;;;;8.00;4.57;;;7.60;99.90;;;;;;5107344;28;20711;-55
2022/01/18 11:36:33;;;;;;;5.30;4.40;;;7.60;99.90;;;;;;5103883;28;20220;-56
2022/01/18 11:39:05;;;;;;;6.17;4.50;;;7.60;99.90;;;;;;5113099;28;20207;-55
2022/01/18 11:41:36;;;;;;;6.27;4.47;;;7.60;99.90;;;;;;5128465;27;20205;-55
2022/01/18 11:44:14;;;;;;;4.90;4.40;;;7.60;99.90;;;;;;5120419;27;20205;-55
2022/01/18 11:46:47;;;;;;;9.53;4.73;;;7.70;99.90;;;;;;5113861;28;20580;-55
2022/01/18 11:49:19;;;;;;;5.80;4.40;;;7.70;99.90;;;;;;5112976;28;20633;-56
2022/01/18 11:51:53;;;;;;;6.97;4.60;;;7.70;99.90;;;;;;5106483;28;20234;-55
2022/01/18 11:54:26;;;;;;;6.03;4.60;;;7.70;99.90;;;;;;5102104;28;20218;-56
2022/01/18 11:56:55;;;;;;;7.40;4.47;;;7.70;99.90;;;;;;5113272;28;20225;-55
2022/01/18 11:59:26;;;;;;;7.70;4.90;;;7.60;99.90;;;;;;5115700;27;20218;-56
2022/01/18 12:01:57;;;;;;;5.63;4.40;;;7.60;99.90;;;;;;5113314;28;20340;-56
2022/01/18 12:05:05;;;;;;;8.30;5.00;;;7.60;99.90;;;;;;5113763;28;20213;-56
2022/01/18 12:07:59;;;;;;;5.50;4.20;;;7.60;99.90;;;;;;5113481;28;20196;-55
2022/01/18 12:10:45;;;;;;;10.13;4.63;;;7.70;99.90;;;;;;5103045;28;20227;-57
2022/01/18 12:13:38;;;;;;;7.43;4.67;;;7.70;99.90;;;;;;5094821;28;20208;-56
2022/01/18 12:16:19;;;;;;;7.03;4.20;;;7.70;99.90;;;;;;5077335;28;20257;-56
2022/01/18 12:18:57;;;;;;;8.43;4.40;;;7.70;99.90;;;;;;5117929;27;20193;-56
2022/01/18 12:21:31;;;;;;;7.27;4.73;;;7.80;99.90;;;;;;5133415;27;20285;-57
2022/01/18 12:24:14;;;;;;;11.70;4.67;;;7.80;99.90;;;;;;5133403;27;20210;-56
2022/01/18 12:26:45;;;;;;;6.40;4.03;;;7.90;99.90;;;;;;5119063;27;20198;-55
2022/01/18 12:29:22;;;;;;;6.67;4.10;;;7.90;99.90;;;;;;5105455;27;20261;-56
2022/01/18 12:35:00;;;;;;;4.47;4.03;;;7.80;99.90;;;;;;5130864;27;20251;-56
2022/01/18 12:37:47;;;;;;;9.33;4.13;;;7.80;99.90;;;;;;5130270;27;20238;-56
2022/01/18 12:40:33;;;;;;;6.77;4.10;;;7.80;99.90;;;;;;5129610;27;20216;-56
2022/01/18 12:45:55;;;;;;;7.67;4.20;;;7.90;99.90;;;;;;5133571;27;20221;-56
2022/01/18 12:48:23;;;;;;;7.23;4.10;;;8.00;99.90;;;;;;5133282;27;20668;-56
2022/01/18 12:50:56;;;;;;;8.20;4.17;;;8.00;99.90;;;;;;5121305;27;20768;-55
2022/01/18 12:53:31;;;;;;;5.27;3.77;;;8.00;99.90;;;;;;5103518;28;20213;-56
2022/01/18 12:56:01;;;;;;;8.13;4.03;;;8.00;99.90;;;;;;5098601;27;20203;-54
2022/01/18 12:58:34;;;;;;;4.67;3.53;;;8.00;99.90;;;;;;5092243;28;20208;-56
2022/01/18 13:01:05;;;;;;;6.70;3.60;;;8.00;99.90;;;;;;5092029;28;20220;-56
2022/01/18 13:03:35;;;;;;;6.07;3.90;;;8.00;99.90;;;;;;5091944;28;20673;-55
2022/01/18 13:06:08;;;;;;;5.13;3.73;;;8.00;99.90;;;;;;5092095;28;20261;-55
2022/01/18 13:08:58;;;;;;;6.35;3.95;;;7.90;99.90;;;;;;5104887;27;20430;-56
2022/01/18 13:11:27;;;;;;;4.93;3.67;;;8.20;99.90;;;;;;5109379;27;20226;-56
2022/01/18 13:14:01;;;;;;;5.73;3.80;;;8.00;99.90;;;;;;5111908;28;20208;-56
2022/01/18 13:27:43;;;;;;;7.80;4.97;;;8.10;99.90;;;;;;5091864;28;20185;-56
2022/01/18 13:30:18;;;;;;;5.73;3.10;;;8.20;99.90;;;;;;5090433;28;20224;-55
2022/01/18 13:32:47;;;;;;;8.20;6.37;;;8.20;99.90;;;;;;5091394;28;20222;-55
2022/01/18 13:35:16;;;;;;;10.73;8.83;;;8.10;99.90;;;;;;5095564;28;20199;-55
2022/01/18 13:37:45;;;;;;;6.53;5.83;;;8.10;99.90;;;;;;5123071;27;20718;-55
2022/01/18 13:40:17;;;;;;;6.70;3.60;;;8.10;99.90;;;;;;5131725;27;20598;-57
2022/01/18 13:42:48;;;;;;;6.63;3.17;;;8.20;99.90;;;;;;5130298;27;20675;-56
2022/01/18 13:45:19;;;;;;;7.13;4.20;;;8.20;99.90;;;;;;5111064;28;20249;-54
2022/01/18 13:47:51;;;;;;;6.03;4.43;;;8.20;99.90;;;;;;5111291;28;20289;-55
2022/01/18 13:50:41;;;;;;;8.80;4.73;;;8.20;99.90;;;;;;5110846;28;20224;-57
2022/01/18 13:53:14;;;;;;;7.93;4.47;;;8.20;99.90;;;;;;5109476;28;20615;-56
2022/01/18 13:55:49;;;;;;;9.90;4.50;;;8.20;99.90;;;;;;5111137;28;20582;-57
2022/01/18 13:58:25;;;;;;;4.67;3.47;;;8.20;99.90;;;;;;5110811;28;20219;-55
2022/01/18 14:01:05;;;;;;;5.63;3.50;;;8.20;99.90;;;;;;5090935;28;20269;-56
2022/01/18 14:03:36;;;;;;;9.77;3.80;;;8.20;99.90;;;;;;5091054;28;20675;-56
2022/01/18 14:06:06;;;;;;;6.20;3.43;;;8.20;99.90;;;;;;5124377;27;20294;-56
2022/01/18 14:08:41;;;;;;;7.07;3.47;;;8.20;99.90;;;;;;5111194;27;20510;-55
2022/01/18 14:11:11;;;;;;;3.70;3.00;;;8.40;99.90;;;;;;5107489;28;20457;-56
2022/01/18 14:13:40;;;;;;;6.27;3.40;;;8.30;99.90;;;;;;5112494;28;20735;-54
2022/01/18 14:16:23;;;;;;;5.53;3.27;;;8.30;99.90;;;;;;5112750;28;20208;-55